Terminal Aerodrome Forecast
Issued by NWS Jackson, KY

Home | Current Version | Previous Version | Text Only | Print | Product List | Glossary On
Versions: 1 2 3 4 5 6 7 8 9 10 11 12 13 14 15 16 17 18 19 20 21 22 23 24
000
FTUS43 KJKL 051739
TAFLOZ
TAF
KLOZ 051739Z 0518/0618 VRB03KT 1SM -SHRA BR VCTS SCT005 BKN007
      OVC035CB
     FM051900 36005KT 5SM -SHRA BR VCTS SCT007 BKN020CB OVC120
     FM060300 VRB03KT 4SM BR SCT025
     FM060700 00000KT 1/2SM FG BKN002
     FM061500 VRB04KT P6SM BKN025=

USA.gov is the U.S. government's official web portal to all federal, state and local government web resources and services.